createdAt,value
2023-01-27T00:01:07.034Z,-0.87
2023-01-27T00:03:36.492Z,-0.87
2023-01-27T00:08:15.262Z,-0.83
2023-01-27T00:10:43.529Z,-0.86
2023-01-27T00:13:32.084Z,-0.87
2023-01-27T00:16:00.420Z,-0.89
2023-01-27T00:18:28.671Z,-0.91
2023-01-27T00:21:15.630Z,-0.92
2023-01-27T00:24:15.968Z,-0.93
2023-01-27T00:26:44.193Z,-0.95
2023-01-27T00:29:13.880Z,-0.96
2023-01-27T00:32:00.506Z,-0.95
2023-01-27T00:34:28.961Z,-0.95
2023-01-27T00:36:57.145Z,-0.98
2023-01-27T00:39:26.665Z,-1.00
2023-01-27T00:41:55.448Z,-1.01
2023-01-27T00:44:24.072Z,-1.02
2023-01-27T00:46:54.982Z,-1.01
2023-01-27T00:49:23.284Z,-0.99
2023-01-27T00:51:51.476Z,-0.99
2023-01-27T00:54:22.525Z,-0.99
2023-01-27T00:56:50.931Z,-0.98
2023-01-27T00:59:19.170Z,-0.99
2023-01-27T01:01:50.206Z,-1.00
2023-01-27T01:04:18.792Z,-1.01
2023-01-27T01:06:48.036Z,-1.03
2023-01-27T01:09:16.158Z,-1.04
2023-01-27T01:11:44.306Z,-1.05
2023-01-27T01:14:13.438Z,-1.06
2023-01-27T04:54:41.344Z,-1.80
2023-01-27T04:57:10.745Z,-1.78
2023-01-27T04:59:38.949Z,-1.79
2023-01-27T05:02:07.182Z,-1.80
2023-01-27T05:04:35.535Z,-1.80
2023-01-27T05:07:04.581Z,-1.80
2023-01-27T05:09:32.955Z,-1.82
2023-01-27T05:12:01.056Z,-1.81
2023-01-27T05:14:30.201Z,-1.81
2023-01-27T05:16:58.736Z,-1.81
2023-01-27T05:19:26.898Z,-1.82
2023-01-27T05:21:55.257Z,-1.83
2023-01-27T05:24:23.409Z,-1.84
2023-01-27T05:26:51.631Z,-1.86
2023-01-27T05:29:19.904Z,-1.89
2023-01-27T05:31:48.158Z,-1.91
2023-01-27T05:34:16.997Z,-1.92
2023-01-27T05:36:45.067Z,-1.93
2023-01-27T05:39:13.534Z,-1.95
2023-01-27T05:41:41.693Z,-1.96
2023-01-27T05:44:11.553Z,-1.96
2023-01-27T05:46:40.489Z,-1.97
2023-01-27T05:49:09.595Z,-1.99
2023-01-27T05:51:42.567Z,-2.02
2023-01-27T05:54:10.814Z,-2.03
2023-01-27T05:56:40.833Z,-2.04
2023-01-27T05:59:10.256Z,-2.05
2023-01-27T06:01:38.767Z,-2.06
2023-01-27T06:04:06.989Z,-2.05
2023-01-27T06:06:38.848Z,-2.07
2023-01-27T06:09:07.194Z,-2.07
2023-01-27T06:11:35.365Z,-2.07
2023-01-27T06:14:04.942Z,-2.08
2023-01-27T06:16:33.289Z,-2.09
2023-01-27T06:19:01.503Z,-2.08
2023-01-27T06:21:30.715Z,-2.09
2023-01-27T06:23:58.965Z,-2.10
2023-01-27T06:26:27.079Z,-2.11
2023-01-27T06:28:56.757Z,-2.12
2023-01-27T06:31:26.130Z,-2.14
2023-01-27T06:33:54.500Z,-2.15
2023-01-27T06:36:23.273Z,-2.15
2023-01-27T06:38:51.686Z,-2.16
2023-01-27T06:41:20.742Z,-2.18
2023-01-27T06:43:49.041Z,-2.20
2023-01-27T06:46:17.409Z,-2.21
2023-01-27T06:48:45.668Z,-2.20
2023-01-27T06:51:14.640Z,-2.18
2023-01-27T06:53:42.928Z,-2.16
2023-01-27T06:56:11.093Z,-2.15
2023-01-27T06:58:39.324Z,-2.13
2023-01-27T07:01:07.670Z,-2.10
2023-01-27T07:03:37.311Z,-2.08
2023-01-27T07:06:06.109Z,-2.06
2023-01-27T07:08:34.673Z,-2.07
2023-01-27T07:11:04.756Z,-2.10
2023-01-27T07:13:33.117Z,-2.12
2023-01-27T07:16:01.570Z,-2.13
2023-01-27T07:18:30.001Z,-2.13
2023-01-27T07:20:58.096Z,-2.10
2023-01-27T07:23:26.408Z,-2.09
2023-01-27T07:25:54.684Z,-2.08
2023-01-27T07:28:23.392Z,-2.08
2023-01-27T07:30:51.626Z,-2.08
2023-01-27T07:33:21.440Z,-2.08
2023-01-27T07:35:50.110Z,-2.09
2023-01-27T07:38:18.549Z,-2.11
2023-01-27T07:40:46.881Z,-2.11
2023-01-27T07:43:15.220Z,-2.15
2023-01-27T07:45:43.570Z,-2.22
2023-01-27T07:48:13.018Z,-2.27
2023-01-27T07:50:44.396Z,-2.30
2023-01-27T07:53:12.615Z,-2.29
2023-01-27T07:55:40.718Z,-2.27
2023-01-27T07:58:09.130Z,-2.24
2023-01-27T08:00:37.560Z,-2.23
2023-01-27T08:03:06.322Z,-2.21
2023-01-27T08:05:34.667Z,-2.20
2023-01-27T08:08:04.641Z,-2.19
2023-01-27T08:10:33.237Z,-2.18
2023-01-27T08:13:04.353Z,-2.15
2023-01-27T08:15:32.725Z,-2.12
2023-01-27T08:18:01.913Z,-2.08
2023-01-27T08:20:30.452Z,-2.06
2023-01-27T08:22:59.060Z,-2.04
2023-01-27T08:25:27.184Z,-2.01
2023-01-27T08:27:55.985Z,-1.99
2023-01-27T08:30:24.276Z,-1.95
2023-01-27T08:32:52.753Z,-1.94
2023-01-27T08:35:20.982Z,-1.91
2023-01-27T08:37:49.397Z,-1.90
2023-01-27T08:40:18.195Z,-1.91
2023-01-27T08:42:46.785Z,-1.90
2023-01-27T08:45:14.975Z,-1.89
2023-01-27T08:47:45.832Z,-1.88
2023-01-27T08:50:14.256Z,-1.88
2023-01-27T08:52:42.555Z,-1.86
2023-01-27T08:55:11.789Z,-1.82
2023-01-27T08:57:39.998Z,-1.80
2023-01-27T09:00:09.001Z,-1.76
2023-01-27T09:02:37.521Z,-1.71
2023-01-27T09:05:05.967Z,-1.68
2023-01-27T09:07:34.498Z,-1.67
2023-01-27T09:10:17.911Z,-1.65
2023-01-27T09:12:46.317Z,-1.62
2023-01-27T09:15:14.748Z,-1.59
2023-01-27T09:17:43.838Z,-1.55
2023-01-27T09:20:13.596Z,-1.54
2023-01-27T09:22:42.326Z,-1.52
2023-01-27T09:25:14.140Z,-1.48
2023-01-27T09:27:43.176Z,-1.45
2023-01-27T09:30:12.452Z,-1.44
2023-01-27T09:32:41.133Z,-1.42
2023-01-27T09:35:09.741Z,-1.40
2023-01-27T09:37:41.835Z,-1.37
2023-01-27T09:40:15.836Z,-1.33
2023-01-27T09:42:51.176Z,-1.30
2023-01-27T09:45:44.082Z,-1.29
2023-01-27T09:48:28.943Z,-1.29
2023-01-27T09:51:21.789Z,-1.28
2023-01-27T09:54:23.786Z,-1.25
2023-01-27T09:57:07.987Z,-1.20
2023-01-27T09:59:55.851Z,-1.17
2023-01-27T10:02:56.016Z,-1.14
2023-01-27T10:05:52.126Z,-1.13
2023-01-27T10:08:39.286Z,-1.08
2023-01-27T10:11:25.845Z,-1.04
2023-01-27T10:14:01.543Z,-1.01
2023-01-27T13:29:21.103Z,-1.53
2023-01-27T13:32:04.353Z,-1.53
2023-01-27T13:34:41.379Z,-1.55
2023-01-27T13:37:21.998Z,-1.59
2023-01-27T13:40:27.793Z,-1.62
2023-01-27T13:43:12.972Z,-1.64
2023-01-27T13:45:41.749Z,-1.68
2023-01-27T13:48:12.341Z,-1.71
2023-01-27T13:50:43.765Z,-1.70
2023-01-27T13:53:13.316Z,-1.68
2023-01-27T13:55:52.646Z,-1.68
2023-01-27T13:58:58.626Z,-1.69
2023-01-27T14:02:12.956Z,-1.68
2023-01-27T14:04:59.582Z,-1.68
2023-01-27T14:07:46.637Z,-1.68
2023-01-27T14:10:41.081Z,-1.74
2023-01-27T14:14:03.863Z,-1.80
2023-01-27T14:16:35.243Z,-1.83
2023-01-27T14:19:27.751Z,-1.85
2023-01-27T14:22:08.493Z,-1.87
2023-01-27T14:24:40.056Z,-1.87
2023-01-27T14:27:10.672Z,-1.90
2023-01-27T14:29:54.358Z,-1.90
2023-01-27T14:32:34.237Z,-1.90
2023-01-27T14:35:05.800Z,-1.91
2023-01-27T14:37:52.718Z,-1.91
2023-01-27T14:40:34.808Z,-1.90
2023-01-27T14:43:03.221Z,-1.89
2023-01-27T14:45:37.285Z,-1.91
2023-01-27T14:48:12.011Z,-1.94
2023-01-27T14:50:54.958Z,-1.95
2023-01-27T14:53:52.469Z,-1.94
2023-01-27T14:56:36.041Z,-1.93
2023-01-27T14:59:49.571Z,-1.93
2023-01-27T15:02:48.947Z,-1.97
2023-01-27T15:06:02.765Z,-2.03
2023-01-27T15:09:22.398Z,-2.06
2023-01-27T15:12:03.328Z,-2.07
2023-01-27T15:14:58.055Z,-2.08
2023-01-27T15:17:38.819Z,-2.08
2023-01-27T15:20:29.200Z,-2.09
2023-01-27T15:23:21.790Z,-2.08
2023-01-27T15:25:57.947Z,-2.08
2023-01-27T15:28:29.509Z,-2.08
2023-01-27T15:31:16.862Z,-2.10
2023-01-27T15:33:48.149Z,-2.13
2023-01-27T15:36:19.498Z,-2.15
2023-01-27T15:39:02.788Z,-2.15
2023-01-27T15:41:31.098Z,-2.15
2023-01-27T15:44:16.144Z,-2.15
2023-01-27T15:46:48.691Z,-2.18
2023-01-27T15:49:38.647Z,-2.20
2023-01-27T15:52:40.456Z,-2.21
2023-01-27T15:55:18.161Z,-2.19
2023-01-27T15:57:46.560Z,-2.18
2023-01-27T16:00:26.438Z,-2.16
2023-01-27T16:02:54.745Z,-2.14
2023-01-27T16:05:30.976Z,-2.12
2023-01-27T16:08:01.198Z,-2.11
2023-01-27T16:10:34.819Z,-2.11
2023-01-27T16:13:18.563Z,-2.11
2023-01-27T16:15:48.014Z,-2.10
2023-01-27T16:18:16.360Z,-2.11
2023-01-27T16:21:03.728Z,-2.10
2023-01-27T16:23:55.644Z,-2.08
2023-01-27T16:26:41.243Z,-2.07
2023-01-27T16:29:12.194Z,-2.05
2023-01-27T16:31:42.197Z,-2.05
2023-01-27T16:34:23.409Z,-2.04
2023-01-27T16:37:02.307Z,-2.02
2023-01-27T16:39:44.199Z,-2.00
2023-01-27T16:42:14.154Z,-2.02
2023-01-27T16:44:45.638Z,-2.02
2023-01-27T16:47:26.759Z,-2.02
2023-01-27T16:49:57.218Z,-2.00
2023-01-27T16:52:41.252Z,-2.01
2023-01-27T16:55:20.252Z,-2.03
2023-01-27T16:57:49.068Z,-2.08
2023-01-27T17:00:23.176Z,-2.12
2023-01-27T17:02:52.107Z,-2.16
2023-01-27T17:05:20.680Z,-2.19
2023-01-27T17:08:24.283Z,-2.22
2023-01-27T17:10:55.954Z,-2.24
2023-01-27T17:13:29.182Z,-2.29
2023-01-27T17:15:57.487Z,-2.34
2023-01-27T17:18:25.788Z,-2.38
2023-01-27T17:20:54.490Z,-2.40
2023-01-27T17:23:36.267Z,-2.39
2023-01-27T17:26:06.337Z,-2.39
2023-01-27T17:28:36.262Z,-2.39
2023-01-27T17:31:08.383Z,-2.37
2023-01-27T17:33:38.093Z,-2.35
2023-01-27T17:36:10.258Z,-2.34
2023-01-27T17:38:45.579Z,-2.35
2023-01-27T17:41:24.257Z,-2.37
2023-01-27T17:43:52.866Z,-2.39
2023-01-27T17:46:22.695Z,-2.40
2023-01-27T17:49:06.263Z,-2.39
2023-01-27T17:51:54.058Z,-2.41
2023-01-27T17:54:50.634Z,-2.40
2023-01-27T17:57:39.822Z,-2.38
2023-01-27T18:04:14.095Z,-2.36
2023-01-27T18:10:35.499Z,-2.33
2023-01-27T18:13:18.884Z,-2.32
2023-01-27T18:16:03.791Z,-2.30
2023-01-27T18:18:35.528Z,-2.30
2023-01-27T18:21:04.236Z,-2.30
2023-01-27T18:23:43.563Z,-2.31
2023-01-27T18:26:22.011Z,-2.32
2023-01-27T18:28:53.743Z,-2.34
2023-01-27T18:31:52.262Z,-2.33
2023-01-27T18:34:33.811Z,-2.31
2023-01-27T18:37:08.802Z,-2.31
2023-01-27T18:39:40.876Z,-2.30
2023-01-27T18:42:19.262Z,-2.30
2023-01-27T18:44:51.740Z,-2.33
2023-01-27T18:47:20.137Z,-2.33
2023-01-27T18:50:01.437Z,-2.34
2023-01-27T18:52:30.106Z,-2.34
2023-01-27T18:55:02.376Z,-2.32
2023-01-27T18:57:31.038Z,-2.31
2023-01-27T18:59:59.234Z,-2.30
2023-01-27T19:02:27.673Z,-2.29
2023-01-27T19:04:56.013Z,-2.29
2023-01-27T19:07:24.692Z,-2.31
2023-01-27T19:09:52.926Z,-2.34
2023-01-27T19:12:21.162Z,-2.35
2023-01-27T19:14:49.486Z,-2.35
2023-01-27T19:17:20.199Z,-2.35
2023-01-27T19:19:48.511Z,-2.36
2023-01-27T19:22:17.636Z,-2.37
2023-01-27T19:24:46.163Z,-2.38
2023-01-27T19:27:15.178Z,-2.38
2023-01-27T19:29:44.538Z,-2.38
2023-01-27T19:32:15.940Z,-2.37
2023-01-27T19:34:44.170Z,-2.34
2023-01-27T19:37:17.189Z,-2.32
2023-01-27T19:39:46.416Z,-2.29
2023-01-27T19:42:15.568Z,-2.27
2023-01-27T19:44:43.959Z,-2.25
2023-01-27T19:47:12.968Z,-2.24
2023-01-27T19:49:41.445Z,-2.22
2023-01-27T19:52:10.250Z,-2.19
2023-01-27T19:54:38.513Z,-2.18
2023-01-27T19:57:12.125Z,-2.16
2023-01-27T19:59:40.403Z,-2.13
2023-01-27T20:02:10.599Z,-2.13
2023-01-27T20:04:39.002Z,-2.13
2023-01-27T20:07:10.990Z,-2.09
2023-01-27T20:09:39.421Z,-2.08
2023-01-27T20:12:14.432Z,-2.07
2023-01-27T20:14:47.955Z,-2.07
2023-01-27T20:17:16.989Z,-2.06
2023-01-27T20:19:47.893Z,-2.03
2023-01-27T20:22:16.642Z,-2.01
2023-01-27T20:24:44.851Z,-2.00
2023-01-27T20:27:13.079Z,-1.98
2023-01-27T20:29:41.957Z,-1.98
2023-01-27T20:32:10.341Z,-2.00
2023-01-27T20:34:39.179Z,-2.01
2023-01-27T20:37:07.530Z,-2.03
2023-01-27T20:39:36.034Z,-2.03
2023-01-27T20:42:07.906Z,-2.03
2023-01-27T20:44:36.882Z,-2.03
2023-01-27T20:47:05.191Z,-2.04
2023-01-27T20:49:35.997Z,-2.04
2023-01-27T20:52:04.347Z,-2.05
2023-01-27T20:54:32.651Z,-2.06
2023-01-27T20:57:01.196Z,-2.09
2023-01-27T20:59:30.211Z,-2.12
2023-01-27T21:01:58.622Z,-2.12
2023-01-27T21:04:26.830Z,-2.10
2023-01-27T21:06:55.092Z,-2.09
2023-01-27T21:09:23.956Z,-2.11
2023-01-27T21:11:52.067Z,-2.12
2023-01-27T21:14:24.359Z,-2.12
2023-01-27T21:16:52.692Z,-2.12
2023-01-27T21:19:21.459Z,-2.12
2023-01-27T21:21:50.029Z,-2.13
2023-01-27T21:24:18.182Z,-2.15
2023-01-27T21:26:46.236Z,-2.20
2023-01-27T21:29:14.784Z,-2.24
2023-01-27T21:31:43.104Z,-2.28
2023-01-27T21:34:11.265Z,-2.29
2023-01-27T21:36:39.790Z,-2.27
2023-01-27T21:39:08.058Z,-2.28
2023-01-27T21:41:54.253Z,-2.28
2023-01-27T21:44:45.205Z,-2.29
2023-01-27T21:47:15.768Z,-2.30
2023-01-27T21:50:03.042Z,-2.31
2023-01-27T21:52:37.766Z,-2.33
2023-01-27T21:55:07.513Z,-2.37
2023-01-27T21:57:35.730Z,-2.39
2023-01-27T22:00:05.389Z,-2.38
2023-01-27T22:02:40.248Z,-2.39
2023-01-27T22:05:09.450Z,-2.43
2023-01-27T22:07:38.634Z,-2.46
2023-01-27T22:10:07.948Z,-2.47
2023-01-27T22:12:36.545Z,-2.50
2023-01-27T22:15:06.589Z,-2.53
2023-01-27T22:17:35.206Z,-2.56
2023-01-27T22:20:04.036Z,-2.60
2023-01-27T22:22:32.385Z,-2.64
2023-01-27T22:25:00.958Z,-2.64
2023-01-27T22:27:29.630Z,-2.64
2023-01-27T22:29:57.746Z,-2.67
2023-01-27T22:32:28.019Z,-2.70
2023-01-27T22:34:56.461Z,-2.74
2023-01-27T22:37:24.707Z,-2.77
2023-01-27T22:39:52.845Z,-2.78
2023-01-27T22:42:20.992Z,-2.78
2023-01-27T22:44:49.107Z,-2.78
2023-01-27T22:47:17.213Z,-2.78
2023-01-27T22:49:45.313Z,-2.82
2023-01-27T22:52:13.556Z,-2.87
2023-01-27T22:54:41.736Z,-2.91
2023-01-27T22:57:10.632Z,-2.94
2023-01-27T22:59:38.967Z,-2.97
2023-01-27T23:02:07.162Z,-2.99
2023-01-27T23:04:37.533Z,-3.01
2023-01-27T23:07:05.603Z,-3.03
2023-01-27T23:09:33.823Z,-3.04
2023-01-27T23:12:02.058Z,-3.05
2023-01-27T23:14:30.259Z,-3.06
2023-01-27T23:16:58.704Z,-3.07
2023-01-27T23:19:27.443Z,-3.09
2023-01-27T23:21:55.887Z,-3.11
2023-01-27T23:24:24.113Z,-3.13
2023-01-27T23:26:52.334Z,-3.15
2023-01-27T23:29:24.940Z,-3.16
2023-01-27T23:31:53.765Z,-3.16
2023-01-27T23:34:22.113Z,-3.14
2023-01-27T23:36:50.255Z,-3.12
2023-01-27T23:39:18.447Z,-3.12
2023-01-27T23:41:46.641Z,-3.14
2023-01-27T23:44:14.952Z,-3.15
2023-01-27T23:46:43.435Z,-3.16
2023-01-27T23:49:12.911Z,-3.17
2023-01-27T23:51:41.047Z,-3.18
2023-01-27T23:54:09.149Z,-3.21
2023-01-27T23:56:38.129Z,-3.20
2023-01-27T23:59:06.395Z,-3.17
